KLBL/LBL METAR and TAF weather

Enter ICAO airport designator
Station Type Date Time Source
KLBL METAR 2019/04/19 08:56 UTC NOAA

KLBL 190856Z AUTO 33008KT 10SM CLR 04/M01 A3017 RMK AO2 SLP212 T00391006 58002


Station Type Date Time Source
KLBL Decoded METAR 2019/04/19 08:56 UTC NOAA

Liberal, Liberal Municipal Airport, KS, United States (KLBL) 37-03N 100-58W
Apr 19, 2019 - 04:56 AM EDT / 2019.04.19 0856 UTC
Wind: from the NNW (330 degrees) at 9 MPH (8 KT):0
Visibility: 10 mile(s):0
Sky conditions: clear
Temperature: 39.0 F (3.9 C)
Dew Point: 30.9 F (-0.6 C)
Relative Humidity: 72%
Pressure (altimeter): 30.17 in. Hg (1021 hPa)
Pressure tendency: 0.01 inches (0.2 hPa) lower than three hours ago
ob: KLBL 190856Z AUTO 33008KT 10SM CLR 04/M01 A3017 RMK AO2 SLP212 T00391006 58002
cycle: 9

Station Type Date Time Source
KLBL TAF 2019/04/19 06:24 UTC NOAA

TAF KLBL 190521Z 1906/2006 32010KT P6SM FEW250

Example: see airport list